sensor_id;sensor_type;location;lat;lon;timestamp;pressure;altitude;pressure_sealevel;temperature;humidity
12664;BME280;6396;58.490;15.528;2023-05-10T00:02:27;101220.59;;;11.90;55.92
12664;BME280;6396;58.490;15.528;2023-05-10T00:04:58;100935.75;;;10.36;56.97
12664;BME280;6396;58.490;15.528;2023-05-10T00:07:25;101245.56;;;11.78;55.68
12664;BME280;6396;58.490;15.528;2023-05-10T00:10:08;101065.59;;;11.00;58.50
12664;BME280;6396;58.490;15.528;2023-05-10T00:12:35;100639.78;;;8.45;58.54
12664;BME280;6396;58.490;15.528;2023-05-10T00:15:03;101200.75;;;11.71;57.99
12664;BME280;6396;58.490;15.528;2023-05-10T00:17:31;101218.25;;;11.76;59.17
12664;BME280;6396;58.490;15.528;2023-05-10T00:19:58;101266.03;;;11.70;61.60
12664;BME280;6396;58.490;15.528;2023-05-10T00:22:25;101176.47;;;11.51;63.01
12664;BME280;6396;58.490;15.528;2023-05-10T00:24:52;101200.09;;;11.60;64.50
12664;BME280;6396;58.490;15.528;2023-05-10T00:27:19;101196.59;;;11.58;68.17
12664;BME280;6396;58.490;15.528;2023-05-10T00:29:46;101194.00;;;11.56;64.10
12664;BME280;6396;58.490;15.528;2023-05-10T00:32:13;100992.56;;;10.11;63.93
12664;BME280;6396;58.490;15.528;2023-05-10T00:34:50;101192.19;;;11.57;65.96
12664;BME280;6396;58.490;15.528;2023-05-10T00:37:17;101200.38;;;11.45;62.89
12664;BME280;6396;58.490;15.528;2023-05-10T00:39:44;101087.78;;;10.92;62.76
12664;BME280;6396;58.490;15.528;2023-05-10T00:42:10;101128.06;;;11.04;61.96
12664;BME280;6396;58.490;15.528;2023-05-10T00:44:43;100943.66;;;9.90;64.46
12664;BME280;6396;58.490;15.528;2023-05-10T00:47:10;101030.72;;;10.41;62.10
12664;BME280;6396;58.490;15.528;2023-05-10T00:49:43;101231.22;;;11.44;64.96
12664;BME280;6396;58.490;15.528;2023-05-10T00:52:12;101077.66;;;10.71;63.07
12664;BME280;6396;58.490;15.528;2023-05-10T00:54:40;101249.03;;;11.36;61.47
12664;BME280;6396;58.490;15.528;2023-05-10T00:57:07;100968.38;;;9.86;61.83
12664;BME280;6396;58.490;15.528;2023-05-10T00:59:34;100794.31;;;8.90;63.16
12664;BME280;6396;58.490;15.528;2023-05-10T01:02:01;100993.66;;;9.96;65.28
12664;BME280;6396;58.490;15.528;2023-05-10T01:04:28;101091.59;;;10.79;63.90
12664;BME280;6396;58.490;15.528;2023-05-10T01:06:56;100281.19;;;6.01;64.24
12664;BME280;6396;58.490;15.528;2023-05-10T01:09:25;100818.44;;;9.18;67.38
12664;BME280;6396;58.490;15.528;2023-05-10T01:11:53;101160.94;;;10.91;66.08
12664;BME280;6396;58.490;15.528;2023-05-10T01:14:24;101178.91;;;11.17;66.88
12664;BME280;6396;58.490;15.528;2023-05-10T01:16:52;101047.72;;;10.25;65.19
12664;BME280;6396;58.490;15.528;2023-05-10T01:19:23;101177.22;;;11.13;68.52
12664;BME280;6396;58.490;15.528;2023-05-10T01:21:59;101068.88;;;10.23;70.14
12664;BME280;6396;58.490;15.528;2023-05-10T01:28:17;101168.84;;;10.91;69.82
12664;BME280;6396;58.490;15.528;2023-05-10T01:31:17;101168.88;;;10.88;70.38
12664;BME280;6396;58.490;15.528;2023-05-10T01:33:55;101054.94;;;10.15;70.20
12664;BME280;6396;58.490;15.528;2023-05-10T01:36:28;101169.91;;;10.81;69.66
12664;BME280;6396;58.490;15.528;2023-05-10T01:39:16;101163.81;;;10.76;74.14
12664;BME280;6396;58.490;15.528;2023-05-10T01:41:49;101103.78;;;10.39;72.88
12664;BME280;6396;58.490;15.528;2023-05-10T01:44:29;101102.47;;;10.12;73.28
12664;BME280;6396;58.490;15.528;2023-05-10T01:47:01;101184.22;;;10.68;73.98
12664;BME280;6396;58.490;15.528;2023-05-10T01:49:49;101118.09;;;10.24;74.66
12664;BME280;6396;58.490;15.528;2023-05-10T01:52:18;100836.13;;;8.55;72.13
12664;BME280;6396;58.490;15.528;2023-05-10T01:54:50;100975.72;;;9.13;74.56
12664;BME280;6396;58.490;15.528;2023-05-10T01:57:22;101265.47;;;10.54;76.39
12664;BME280;6396;58.490;15.528;2023-05-10T02:00:03;101167.72;;;10.56;80.35
12664;BME280;6396;58.490;15.528;2023-05-10T02:02:33;101173.91;;;10.55;76.99
12664;BME280;6396;58.490;15.528;2023-05-10T02:05:12;101176.59;;;10.52;81.64
12664;BME280;6396;58.490;15.528;2023-05-10T02:07:39;101013.94;;;9.40;78.48
12664;BME280;6396;58.490;15.528;2023-05-10T02:10:23;101162.91;;;10.27;84.75
12664;BME280;6396;58.490;15.528;2023-05-10T02:12:50;101174.94;;;10.45;79.80
12664;BME280;6396;58.490;15.528;2023-05-10T02:15:22;100999.72;;;9.51;84.23
12664;BME280;6396;58.490;15.528;2023-05-10T02:17:50;101221.63;;;10.44;81.84
12664;BME280;6396;58.490;15.528;2023-05-10T02:20:22;101081.88;;;9.79;88.29
12664;BME280;6396;58.490;15.528;2023-05-10T02:22:49;101009.56;;;9.39;85.19
12664;BME280;6396;58.490;15.528;2023-05-10T02:25:20;100908.75;;;8.68;91.91
12664;BME280;6396;58.490;15.528;2023-05-10T02:27:48;101201.47;;;10.39;87.67
12664;BME280;6396;58.490;15.528;2023-05-10T02:30:16;101197.22;;;10.27;88.96
12664;BME280;6396;58.490;15.528;2023-05-10T02:32:44;101026.31;;;9.35;89.00
12664;BME280;6396;58.490;15.528;2023-05-10T02:35:12;101178.97;;;10.13;90.30
12664;BME280;6396;58.490;15.528;2023-05-10T02:37:41;100916.97;;;8.44;91.76
12664;BME280;6396;58.490;15.528;2023-05-10T02:40:15;100990.00;;;8.95;95.55
12664;BME280;6396;58.490;15.528;2023-05-10T02:42:43;101186.00;;;10.13;91.20
12664;BME280;6396;58.490;15.528;2023-05-10T02:45:20;101177.56;;;9.87;98.21
12664;BME280;6396;58.490;15.528;2023-05-10T02:47:48;101060.63;;;9.32;92.16
12664;BME280;6396;58.490;15.528;2023-05-10T02:50:16;101063.00;;;9.50;95.00
12664;BME280;6396;58.490;15.528;2023-05-10T02:52:47;101110.03;;;9.77;99.38
12664;BME280;6396;58.490;15.528;2023-05-10T02:55:16;101160.59;;;10.09;99.97
12664;BME280;6396;58.490;15.528;2023-05-10T02:57:51;101186.72;;;10.24;100.00
12664;BME280;6396;58.490;15.528;2023-05-10T03:00:21;101181.50;;;10.21;98.96
12664;BME280;6396;58.490;15.528;2023-05-10T03:02:48;101234.28;;;10.21;99.40
12664;BME280;6396;58.490;15.528;2023-05-10T03:05:16;101129.09;;;9.95;100.00
12664;BME280;6396;58.490;15.528;2023-05-10T03:07:44;100786.03;;;7.96;99.38
12664;BME280;6396;58.490;15.528;2023-05-10T03:10:27;101177.13;;;10.19;100.00
12664;BME280;6396;58.490;15.528;2023-05-10T03:13:05;101177.13;;;10.19;100.00
12664;BME280;6396;58.490;15.528;2023-05-10T03:15:37;101177.16;;;10.17;100.00
12664;BME280;6396;58.490;15.528;2023-05-10T03:18:09;101062.94;;;9.54;100.00
12664;BME280;6396;58.490;15.528;2023-05-10T03:20:47;101176.63;;;9.92;100.00
12664;BME280;6396;58.490;15.528;2023-05-10T03:23:21;101177.88;;;10.28;100.00
12664;BME280;6396;58.490;15.528;2023-05-10T03:25:56;101110.06;;;9.75;100.00
12664;BME280;6396;58.490;15.528;2023-05-10T03:28:25;101044.53;;;9.51;100.00
12664;BME280;6396;58.490;15.528;2023-05-10T03:30:55;101207.66;;;10.36;100.00
12664;BME280;6396;58.490;15.528;2023-05-10T03:33:22;101175.16;;;10.33;100.00
12664;BME280;6396;58.490;15.528;2023-05-10T03:35:59;101200.66;;;10.32;100.00
12664;BME280;6396;58.490;15.528;2023-05-10T03:38:27;101164.19;;;10.02;100.00
12664;BME280;6396;58.490;15.528;2023-05-10T03:40:55;101142.97;;;10.08;100.00
12664;BME280;6396;58.490;15.528;2023-05-10T03:43:22;101181.28;;;10.35;100.00
12664;BME280;6396;58.490;15.528;2023-05-10T03:45:50;101116.97;;;9.84;100.00
12664;BME280;6396;58.490;15.528;2023-05-10T03:48:16;101054.19;;;9.51;100.00
12664;BME280;6396;58.490;15.528;2023-05-10T03:50:43;101108.94;;;9.91;100.00
12664;BME280;6396;58.490;15.528;2023-05-10T03:53:11;101151.88;;;10.01;100.00
12664;BME280;6396;58.490;15.528;2023-05-10T03:55:42;101186.47;;;10.41;100.00
12664;BME280;6396;58.490;15.528;2023-05-10T03:58:10;101007.06;;;9.30;100.00
12664;BME280;6396;58.490;15.528;2023-05-10T04:00:37;101208.41;;;10.44;100.00
12664;BME280;6396;58.490;15.528;2023-05-10T04:03:10;101197.00;;;10.42;100.00
12664;BME280;6396;58.490;15.528;2023-05-10T04:05:39;101068.81;;;9.71;100.00
12664;BME280;6396;58.490;15.528;2023-05-10T04:08:06;101191.69;;;10.44;100.00
12664;BME280;6396;58.490;15.528;2023-05-10T04:10:42;101182.97;;;10.40;100.00
12664;BME280;6396;58.490;15.528;2023-05-10T04:13:08;101184.81;;;10.32;100.00
12664;BME280;6396;58.490;15.528;2023-05-10T04:15:35;101058.47;;;9.58;100.00
12664;BME280;6396;58.490;15.528;2023-05-10T04:18:02;101208.69;;;10.26;100.00
12664;BME280;6396;58.490;15.528;2023-05-10T04:20:29;101199.97;;;10.21;100.00
12664;BME280;6396;58.490;15.528;2023-05-10T04:22:55;101192.72;;;10.35;100.00
12664;BME280;6396;58.490;15.528;2023-05-10T04:25:24;101255.94;;;10.43;100.00
12664;BME280;6396;58.490;15.528;2023-05-10T04:27:53;101181.88;;;10.52;100.00
12664;BME280;6396;58.490;15.528;2023-05-10T04:30:21;101183.53;;;10.57;100.00
12664;BME280;6396;58.490;15.528;2023-05-10T04:32:47;101164.53;;;10.37;100.00
12664;BME280;6396;58.490;15.528;2023-05-10T04:35:16;101197.66;;;10.56;100.00
12664;BME280;6396;58.490;15.528;2023-05-10T04:37:42;101184.53;;;10.50;100.00
12664;BME280;6396;58.490;15.528;2023-05-10T04:40:12;101106.25;;;9.94;100.00
12664;BME280;6396;58.490;15.528;2023-05-10T04:42:39;101223.03;;;10.65;100.00
12664;BME280;6396;58.490;15.528;2023-05-10T04:45:35;101186.91;;;10.67;100.00
12664;BME280;6396;58.490;15.528;2023-05-10T04:48:02;101044.78;;;9.89;100.00
12664;BME280;6396;58.490;15.528;2023-05-10T04:50:37;101195.72;;;10.66;100.00
12664;BME280;6396;58.490;15.528;2023-05-10T04:53:04;101094.84;;;9.92;100.00
12664;BME280;6396;58.490;15.528;2023-05-10T04:55:32;101030.66;;;9.92;100.00
12664;BME280;6396;58.490;15.528;2023-05-10T04:57:58;100908.06;;;9.14;100.00
12664;BME280;6396;58.490;15.528;2023-05-10T05:00:26;101183.06;;;10.84;100.00
12664;BME280;6396;58.490;15.528;2023-05-10T05:02:54;101188.25;;;10.89;100.00
12664;BME280;6396;58.490;15.528;2023-05-10T05:05:22;101053.38;;;10.02;100.00
12664;BME280;6396;58.490;15.528;2023-05-10T05:07:49;101223.34;;;10.95;100.00
12664;BME280;6396;58.490;15.528;2023-05-10T05:10:18;101190.63;;;11.02;100.00
12664;BME280;6396;58.490;15.528;2023-05-10T05:12:45;101051.25;;;10.25;100.00
12664;BME280;6396;58.490;15.528;2023-05-10T05:15:18;101264.47;;;11.11;100.00
12664;BME280;6396;58.490;15.528;2023-05-10T05:17:45;101167.06;;;10.92;100.00
12664;BME280;6396;58.490;15.528;2023-05-10T05:20:14;101107.72;;;10.64;100.00
12664;BME280;6396;58.490;15.528;2023-05-10T05:22:41;101267.91;;;11.16;100.00
12664;BME280;6396;58.490;15.528;2023-05-10T05:25:09;101158.22;;;10.94;100.00
12664;BME280;6396;58.490;15.528;2023-05-10T05:27:37;101067.75;;;10.36;100.00
12664;BME280;6396;58.490;15.528;2023-05-10T05:30:05;101030.84;;;9.83;100.00
12664;BME280;6396;58.490;15.528;2023-05-10T05:32:32;100491.19;;;7.14;100.00
12664;BME280;6396;58.490;15.528;2023-05-10T05:35:06;101230.66;;;11.28;100.00
12664;BME280;6396;58.490;15.528;2023-05-10T05:37:34;101216.41;;;11.36;100.00
12664;BME280;6396;58.490;15.528;2023-05-10T05:40:03;101195.19;;;11.40;100.00
12664;BME280;6396;58.490;15.528;2023-05-10T05:42:30;100688.75;;;8.54;100.00
12664;BME280;6396;58.490;15.528;2023-05-10T05:44:58;101149.72;;;11.21;100.00
12664;BME280;6396;58.490;15.528;2023-05-10T05:47:25;100920.06;;;9.83;100.00
12664;BME280;6396;58.490;15.528;2023-05-10T05:49:53;101063.41;;;10.79;100.00
12664;BME280;6396;58.490;15.528;2023-05-10T05:52:20;100639.25;;;8.27;100.00
12664;BME280;6396;58.490;15.528;2023-05-10T05:54:49;101141.53;;;11.35;100.00
12664;BME280;6396;58.490;15.528;2023-05-10T05:57:15;100946.81;;;10.12;100.00
12664;BME280;6396;58.490;15.528;2023-05-10T05:59:42;101201.59;;;11.73;100.00
12664;BME280;6396;58.490;15.528;2023-05-10T06:02:09;100929.38;;;10.02;100.00
12664;BME280;6396;58.490;15.528;2023-05-10T06:04:38;101180.38;;;11.74;100.00
12664;BME280;6396;58.490;15.528;2023-05-10T06:07:05;101212.63;;;11.91;100.00
12664;BME280;6396;58.490;15.528;2023-05-10T06:09:38;101149.78;;;11.61;100.00
12664;BME280;6396;58.490;15.528;2023-05-10T06:12:06;101234.41;;;12.04;100.00
12664;BME280;6396;58.490;15.528;2023-05-10T06:14:35;100943.03;;;10.68;100.00
12664;BME280;6396;58.490;15.528;2023-05-10T06:17:02;101106.78;;;11.52;100.00
12664;BME280;6396;58.490;15.528;2023-05-10T06:19:36;101055.94;;;11.39;100.00
12664;BME280;6396;58.490;15.528;2023-05-10T06:22:03;101098.84;;;11.52;100.00
12664;BME280;6396;58.490;15.528;2023-05-10T06:24:29;101135.78;;;11.96;100.00
12664;BME280;6396;58.490;15.528;2023-05-10T06:26:56;100988.81;;;11.08;100.00
12664;BME280;6396;58.490;15.528;2023-05-10T06:29:26;101205.63;;;12.64;100.00
12664;BME280;6396;58.490;15.528;2023-05-10T06:31:54;101222.00;;;12.79;100.00
12664;BME280;6396;58.490;15.528;2023-05-10T06:34:21;100781.00;;;10.34;100.00
12664;BME280;6396;58.490;15.528;2023-05-10T06:36:48;101164.97;;;12.65;100.00
12664;BME280;6396;58.490;15.528;2023-05-10T06:39:15;101017.41;;;12.02;100.00
12664;BME280;6396;58.490;15.528;2023-05-10T06:42:06;101184.94;;;13.11;100.00
12664;BME280;6396;58.490;15.528;2023-05-10T06:44:35;101188.19;;;13.21;100.00
12664;BME280;6396;58.490;15.528;2023-05-10T06:47:02;101212.66;;;13.32;100.00
12664;BME280;6396;58.490;15.528;2023-05-10T06:49:28;100945.00;;;12.05;100.00
12664;BME280;6396;58.490;15.528;2023-05-10T06:51:59;101185.41;;;13.56;100.00
12664;BME280;6396;58.490;15.528;2023-05-10T06:54:26;101113.09;;;13.20;100.00
12664;BME280;6396;58.490;15.528;2023-05-10T06:56:53;101212.94;;;13.83;100.00
12664;BME280;6396;58.490;15.528;2023-05-10T06:59:22;101229.84;;;14.09;100.00
12664;BME280;6396;58.490;15.528;2023-05-10T07:01:56;101140.31;;;14.13;100.00
12664;BME280;6396;58.490;15.528;2023-05-10T07:04:23;100791.91;;;12.20;100.00
12664;BME280;6396;58.490;15.528;2023-05-10T07:06:50;100746.50;;;12.86;100.00
12664;BME280;6396;58.490;15.528;2023-05-10T07:09:17;101177.16;;;16.62;98.87
12664;BME280;6396;58.490;15.528;2023-05-10T07:11:53;100745.66;;;15.77;86.29
12664;BME280;6396;58.490;15.528;2023-05-10T07:14:20;101007.53;;;18.58;65.19
12664;BME280;6396;58.490;15.528;2023-05-10T07:16:47;100925.81;;;19.01;52.25
12664;BME280;6396;58.490;15.528;2023-05-10T07:19:16;101167.41;;;20.64;40.46
12664;BME280;6396;58.490;15.528;2023-05-10T07:21:45;101155.00;;;20.48;41.80
12664;BME280;6396;58.490;15.528;2023-05-10T07:24:11;101128.06;;;20.49;41.38
12664;BME280;6396;58.490;15.528;2023-05-10T07:26:39;101163.06;;;20.77;39.84
12664;BME280;6396;58.490;15.528;2023-05-10T07:29:07;101187.00;;;20.51;37.80
12664;BME280;6396;58.490;15.528;2023-05-10T07:31:35;101156.28;;;20.86;40.55
12664;BME280;6396;58.490;15.528;2023-05-10T07:34:03;101015.22;;;20.37;40.25
12664;BME280;6396;58.490;15.528;2023-05-10T07:36:35;101169.28;;;21.51;38.01
12664;BME280;6396;58.490;15.528;2023-05-10T07:39:02;100885.81;;;20.03;39.21
12664;BME280;6396;58.490;15.528;2023-05-10T07:41:30;101044.66;;;21.52;38.91
12664;BME280;6396;58.490;15.528;2023-05-10T07:43:57;101135.19;;;22.47;38.31
12664;BME280;6396;58.490;15.528;2023-05-10T07:46:24;100603.91;;;20.10;37.36
12664;BME280;6396;58.490;15.528;2023-05-10T07:48:53;100983.16;;;22.40;36.65
12664;BME280;6396;58.490;15.528;2023-05-10T07:51:25;101153.06;;;23.52;36.10
12664;BME280;6396;58.490;15.528;2023-05-10T07:54:02;100742.22;;;21.47;36.30
12664;BME280;6396;58.490;15.528;2023-05-10T07:56:30;101146.78;;;24.01;34.61
12664;BME280;6396;58.490;15.528;2023-05-10T07:59:05;100478.38;;;20.02;33.88
12664;BME280;6396;58.490;15.528;2023-05-10T08:01:34;101188.75;;;24.42;34.12
12664;BME280;6396;58.490;15.528;2023-05-10T08:04:01;101212.78;;;24.81;34.05
12664;BME280;6396;58.490;15.528;2023-05-10T08:06:32;100906.16;;;23.24;29.34
12664;BME280;6396;58.490;15.528;2023-05-10T08:09:03;101210.44;;;23.91;28.25
12664;BME280;6396;58.490;15.528;2023-05-10T08:11:37;101113.38;;;23.66;29.29
12664;BME280;6396;58.490;15.528;2023-05-10T08:14:04;101036.03;;;22.54;29.28
12664;BME280;6396;58.490;15.528;2023-05-10T08:16:31;100893.81;;;21.83;28.90
12664;BME280;6396;58.490;15.528;2023-05-10T08:18:58;101088.13;;;22.79;30.10
12664;BME280;6396;58.490;15.528;2023-05-10T08:21:29;101150.19;;;23.42;28.81
12664;BME280;6396;58.490;15.528;2023-05-10T08:23:56;101170.44;;;23.60;29.77
12664;BME280;6396;58.490;15.528;2023-05-10T08:26:26;101113.91;;;23.59;28.13
12664;BME280;6396;58.490;15.528;2023-05-10T08:28:52;101116.59;;;22.96;27.40
12664;BME280;6396;58.490;15.528;2023-05-10T08:31:19;101096.78;;;22.97;28.34
12664;BME280;6396;58.490;15.528;2023-05-10T08:33:46;101046.09;;;22.77;28.79
12664;BME280;6396;58.490;15.528;2023-05-10T08:36:14;100957.28;;;22.12;27.43
12664;BME280;6396;58.490;15.528;2023-05-10T08:38:46;100783.84;;;21.41;26.87
12664;BME280;6396;58.490;15.528;2023-05-10T08:41:14;100826.56;;;21.32;27.17
12664;BME280;6396;58.490;15.528;2023-05-10T08:43:57;101033.28;;;22.93;28.36
12664;BME280;6396;58.490;15.528;2023-05-10T08:46:33;101141.06;;;23.05;27.13
12664;BME280;6396;58.490;15.528;2023-05-10T08:49:02;101134.72;;;23.19;28.66
12664;BME280;6396;58.490;15.528;2023-05-10T08:51:33;101117.47;;;23.47;27.88
12664;BME280;6396;58.490;15.528;2023-05-10T08:54:02;101141.94;;;23.69;26.98
12664;BME280;6396;58.490;15.528;2023-05-10T08:56:31;101220.59;;;23.50;27.16
12664;BME280;6396;58.490;15.528;2023-05-10T08:58:59;101143.81;;;23.31;27.56
12664;BME280;6396;58.490;15.528;2023-05-10T09:01:28;101145.25;;;23.09;27.00
12664;BME280;6396;58.490;15.528;2023-05-10T09:03:58;101141.59;;;22.98;27.15
12664;BME280;6396;58.490;15.528;2023-05-10T09:06:26;100932.09;;;21.74;27.80
12664;BME280;6396;58.490;15.528;2023-05-10T09:08:54;100823.06;;;21.44;28.05
12664;BME280;6396;58.490;15.528;2023-05-10T09:11:26;100669.34;;;21.26;27.61
12664;BME280;6396;58.490;15.528;2023-05-10T09:13:55;100579.38;;;20.42;27.73
12664;BME280;6396;58.490;15.528;2023-05-10T09:16:24;101097.09;;;23.55;26.93
12664;BME280;6396;58.490;15.528;2023-05-10T09:18:50;101071.88;;;23.44;27.58
12664;BME280;6396;58.490;15.528;2023-05-10T09:21:20;101040.44;;;23.55;27.77
12664;BME280;6396;58.490;15.528;2023-05-10T09:23:48;101096.50;;;23.75;26.92
12664;BME280;6396;58.490;15.528;2023-05-10T09:26:16;101158.84;;;23.83;26.94
12664;BME280;6396;58.490;15.528;2023-05-10T09:28:53;101132.25;;;23.54;26.38
12664;BME280;6396;58.490;15.528;2023-05-10T09:31:21;101151.88;;;23.81;26.74
12664;BME280;6396;58.490;15.528;2023-05-10T09:33:50;101128.78;;;23.52;26.01
12664;BME280;6396;58.490;15.528;2023-05-10T09:36:31;101131.72;;;23.36;26.48
12664;BME280;6396;58.490;15.528;2023-05-10T09:38:58;100694.13;;;20.78;26.52
12664;BME280;6396;58.490;15.528;2023-05-10T09:44:17;100998.28;;;22.93;27.05
12664;BME280;6396;58.490;15.528;2023-05-10T09:46:51;100789.00;;;21.44;26.26
12664;BME280;6396;58.490;15.528;2023-05-10T09:49:22;100485.59;;;19.34;25.84
12664;BME280;6396;58.490;15.528;2023-05-10T09:52:06;101119.66;;;23.90;26.78
12664;BME280;6396;58.490;15.528;2023-05-10T09:54:34;101046.72;;;23.79;26.63
12664;BME280;6396;58.490;15.528;2023-05-10T09:57:05;100992.97;;;23.89;26.72
12664;BME280;6396;58.490;15.528;2023-05-10T09:59:32;100824.47;;;22.87;26.47
12664;BME280;6396;58.490;15.528;2023-05-10T10:02:01;100905.19;;;23.72;nan
12664;BME280;6396;58.490;15.528;2023-05-10T10:04:29;101173.72;;;25.19;26.46
12664;BME280;6396;58.490;15.528;2023-05-10T10:07:01;101106.97;;;24.98;26.77
12664;BME280;6396;58.490;15.528;2023-05-10T10:09:29;101109.56;;;24.65;26.76
12664;BME280;6396;58.490;15.528;2023-05-10T10:11:56;101128.31;;;24.79;27.07
12664;BME280;6396;58.490;15.528;2023-05-10T10:14:24;101114.09;;;24.99;26.39
12664;BME280;6396;58.490;15.528;2023-05-10T10:16:51;101104.53;;;25.28;26.38
12664;BME280;6396;58.490;15.528;2023-05-10T10:19:18;101107.53;;;24.56;25.35
12664;BME280;6396;58.490;15.528;2023-05-10T10:21:51;101095.38;;;24.85;26.21
12664;BME280;6396;58.490;15.528;2023-05-10T10:24:17;101095.22;;;25.32;25.74
12664;BME280;6396;58.490;15.528;2023-05-10T10:26:46;101054.41;;;25.13;24.84
12664;BME280;6396;58.490;15.528;2023-05-10T10:29:23;101104.34;;;25.53;25.60
12664;BME280;6396;58.490;15.528;2023-05-10T10:32:35;101101.88;;;25.39;26.61
12664;BME280;6396;58.490;15.528;2023-05-10T10:35:05;101006.31;;;24.38;26.84
12664;BME280;6396;58.490;15.528;2023-05-10T10:37:50;100456.19;;;21.15;27.70
12664;BME280;6396;58.490;15.528;2023-05-10T10:41:07;101083.44;;;25.33;26.84
12664;BME280;6396;58.490;15.528;2023-05-10T10:43:43;100405.19;;;21.26;26.75
12664;BME280;6396;58.490;15.528;2023-05-10T10:46:20;100776.22;;;23.66;27.01
12664;BME280;6396;58.490;15.528;2023-05-10T10:48:50;101069.16;;;25.20;27.15
12664;BME280;6396;58.490;15.528;2023-05-10T10:52:14;100340.63;;;20.30;25.64
12664;BME280;6396;58.490;15.528;2023-05-10T10:55:15;100375.75;;;20.88;27.35
12664;BME280;6396;58.490;15.528;2023-05-10T10:57:59;100349.75;;;20.40;27.65
12664;BME280;6396;58.490;15.528;2023-05-10T11:00:41;100811.03;;;23.11;26.68
12664;BME280;6396;58.490;15.528;2023-05-10T11:03:19;101076.13;;;24.66;26.46
12664;BME280;6396;58.490;15.528;2023-05-10T11:06:03;100453.06;;;20.58;26.76
12664;BME280;6396;58.490;15.528;2023-05-10T11:08:34;100341.81;;;20.26;28.04
12664;BME280;6396;58.490;15.528;2023-05-10T11:11:39;100387.41;;;20.26;27.23
12664;BME280;6396;58.490;15.528;2023-05-10T11:14:51;101095.19;;;24.41;27.54
12664;BME280;6396;58.490;15.528;2023-05-10T11:17:35;100580.44;;;21.54;28.31
12664;BME280;6396;58.490;15.528;2023-05-10T11:20:15;100533.03;;;20.53;28.36
12664;BME280;6396;58.490;15.528;2023-05-10T11:23:28;100603.78;;;21.16;27.01
12664;BME280;6396;58.490;15.528;2023-05-10T11:26:15;100231.72;;;19.39;28.07
12664;BME280;6396;58.490;15.528;2023-05-10T11:28:45;100352.31;;;20.16;27.09
12664;BME280;6396;58.490;15.528;2023-05-10T11:31:23;100375.03;;;19.59;26.64
12664;BME280;6396;58.490;15.528;2023-05-10T11:36:42;100386.56;;;20.38;28.01
12664;BME280;6396;58.490;15.528;2023-05-10T11:39:19;100340.25;;;19.96;27.80
12664;BME280;6396;58.490;15.528;2023-05-10T11:42:01;101072.63;;;23.46;26.80
12664;BME280;6396;58.490;15.528;2023-05-10T11:44:37;100592.81;;;20.55;27.69
12664;BME280;6396;58.490;15.528;2023-05-10T11:47:14;100899.78;;;21.62;29.30
12664;BME280;6396;58.490;15.528;2023-05-10T11:49:45;101091.47;;;23.08;30.77
12664;BME280;6396;58.490;15.528;2023-05-10T11:52:17;100509.78;;;19.73;29.07
12664;BME280;6396;58.490;15.528;2023-05-10T11:54:51;100655.97;;;20.34;29.33
12664;BME280;6396;58.490;15.528;2023-05-10T11:57:28;100780.50;;;21.63;29.92
12664;BME280;6396;58.490;15.528;2023-05-10T12:00:16;100686.63;;;21.35;31.33
12664;BME280;6396;58.490;15.528;2023-05-10T12:02:51;100380.75;;;19.00;29.37
12664;BME280;6396;58.490;15.528;2023-05-10T12:05:22;101057.09;;;22.99;28.50
12664;BME280;6396;58.490;15.528;2023-05-10T12:07:52;100883.88;;;21.71;30.01
12664;BME280;6396;58.490;15.528;2023-05-10T12:10:26;100670.56;;;19.87;29.46
12664;BME280;6396;58.490;15.528;2023-05-10T12:15:58;100905.47;;;21.70;28.41
12664;BME280;6396;58.490;15.528;2023-05-10T12:18:30;100713.63;;;20.41;27.69
12664;BME280;6396;58.490;15.528;2023-05-10T12:21:12;100800.81;;;20.88;28.87
12664;BME280;6396;58.490;15.528;2023-05-10T12:23:39;100630.97;;;19.64;28.77
12664;BME280;6396;58.490;15.528;2023-05-10T12:26:21;100716.59;;;20.36;29.10
12664;BME280;6396;58.490;15.528;2023-05-10T12:29:10;101030.13;;;22.09;29.35
12664;BME280;6396;58.490;15.528;2023-05-10T12:31:56;101016.31;;;22.01;30.19
12664;BME280;6396;58.490;15.528;2023-05-10T12:34:25;100643.72;;;19.61;31.02
12664;BME280;6396;58.490;15.528;2023-05-10T12:37:01;100895.75;;;21.01;32.06
12664;BME280;6396;58.490;15.528;2023-05-10T12:39:44;100852.28;;;21.36;31.48
12664;BME280;6396;58.490;15.528;2023-05-10T12:42:15;100335.50;;;17.68;30.55
12664;BME280;6396;58.490;15.528;2023-05-10T12:44:43;100485.09;;;18.57;30.29
12664;BME280;6396;58.490;15.528;2023-05-10T12:47:12;100904.59;;;21.30;30.39
12664;BME280;6396;58.490;15.528;2023-05-10T12:49:38;101021.63;;;21.89;30.06
12664;BME280;6396;58.490;15.528;2023-05-10T12:52:13;101036.56;;;21.80;29.90
12664;BME280;6396;58.490;15.528;2023-05-10T12:54:39;101044.94;;;21.62;30.77
12664;BME280;6396;58.490;15.528;2023-05-10T12:57:09;101040.91;;;21.55;31.94
12664;BME280;6396;58.490;15.528;2023-05-10T12:59:36;101026.63;;;21.40;32.10
12664;BME280;6396;58.490;15.528;2023-05-10T13:02:15;101023.59;;;21.32;33.33
12664;BME280;6396;58.490;15.528;2023-05-10T13:04:43;101040.97;;;21.27;32.89
12664;BME280;6396;58.490;15.528;2023-05-10T13:07:30;101035.50;;;21.14;32.66
12664;BME280;6396;58.490;15.528;2023-05-10T13:09:57;101040.19;;;21.11;32.83
12664;BME280;6396;58.490;15.528;2023-05-10T13:12:32;100967.84;;;20.65;34.45
12664;BME280;6396;58.490;15.528;2023-05-10T13:14:59;101035.91;;;21.08;32.66
12664;BME280;6396;58.490;15.528;2023-05-10T13:17:27;101034.81;;;21.11;32.53
12664;BME280;6396;58.490;15.528;2023-05-10T13:19:55;100803.84;;;19.85;33.97
12664;BME280;6396;58.490;15.528;2023-05-10T13:22:28;101052.47;;;21.00;33.28
12664;BME280;6396;58.490;15.528;2023-05-10T13:24:57;100908.31;;;20.31;31.83